createdAt,value
2019-03-09T00:01:01.442Z,10.92
2019-03-09T00:03:36.500Z,10.87
2019-03-09T00:06:08.385Z,11.05
2019-03-09T00:08:40.726Z,11.11
2019-03-09T00:11:16.630Z,11.11
2019-03-09T00:13:48.584Z,11.12
2019-03-09T00:16:20.500Z,11.12
2019-03-09T00:18:52.810Z,11.13
2019-03-09T00:21:24.664Z,11.11
2019-03-09T00:24:10.635Z,11.12
2019-03-09T00:26:44.463Z,11.06
2019-03-09T00:29:40.619Z,10.99
2019-03-09T00:32:15.668Z,11.08
2019-03-09T00:34:48.073Z,10.95
2019-03-09T00:37:19.921Z,11.04
2019-03-09T00:39:52.978Z,10.97
2019-03-09T00:42:24.835Z,10.99
2019-03-09T00:44:56.930Z,11.03
2019-03-09T00:47:29.163Z,11.20
2019-03-09T00:50:01.328Z,11.14
2019-03-09T00:52:34.927Z,11.18
2019-03-09T00:55:08.191Z,11.11
2019-03-09T00:57:42.079Z,11.05
2019-03-09T01:00:17.015Z,10.93
2019-03-09T01:02:50.950Z,10.92
2019-03-09T01:05:22.345Z,10.92
2019-03-09T01:07:55.182Z,10.89
2019-03-09T01:10:27.061Z,10.86
2019-03-09T01:12:58.904Z,10.84
2019-03-09T01:15:33.064Z,10.79
2019-03-09T01:18:06.256Z,10.57
2019-03-09T01:20:38.359Z,10.40
2019-03-09T01:23:13.357Z,10.31
2019-03-09T01:25:45.250Z,10.29
2019-03-09T01:28:19.422Z,10.29
2019-03-09T01:30:51.446Z,10.28
2019-03-09T01:33:23.412Z,10.27
2019-03-09T01:35:55.194Z,10.19
2019-03-09T01:38:27.043Z,10.23
2019-03-09T01:41:00.558Z,10.28
2019-03-09T01:43:33.566Z,10.23
2019-03-09T01:46:05.467Z,10.18
2019-03-09T01:48:37.682Z,10.06
2019-03-09T01:51:09.515Z,10.07
2019-03-09T01:53:41.342Z,9.97
2019-03-09T01:56:13.198Z,9.96
2019-03-09T01:58:45.025Z,9.94
2019-03-09T02:01:19.237Z,10.04
2019-03-09T02:03:52.660Z,10.06
2019-03-09T02:06:25.797Z,10.16
2019-03-09T02:08:57.639Z,10.25
2019-03-09T02:11:29.484Z,10.43
2019-03-09T02:14:01.334Z,10.44
2019-03-09T02:16:35.625Z,10.37
2019-03-09T02:19:09.715Z,10.52
2019-03-09T02:21:43.003Z,10.55
2019-03-09T02:24:14.887Z,10.61
2019-03-09T02:26:48.044Z,10.64
2019-03-09T02:29:19.894Z,10.72
2019-03-09T02:31:52.059Z,10.65
2019-03-09T02:34:25.781Z,10.73
2019-03-09T02:36:58.044Z,10.78
2019-03-09T02:39:43.753Z,10.78
2019-03-09T02:42:15.594Z,10.57
2019-03-09T02:44:47.690Z,10.69
2019-03-09T02:47:19.900Z,10.60
2019-03-09T02:49:54.112Z,10.67
2019-03-09T02:52:27.691Z,10.68
2019-03-09T02:54:59.569Z,10.71
2019-03-09T02:57:31.362Z,10.83
2019-03-09T03:00:07.902Z,10.86
2019-03-09T03:02:46.180Z,10.78
2019-03-09T03:05:19.991Z,10.77
2019-03-09T03:07:51.834Z,10.60
2019-03-09T03:10:25.442Z,10.93
2019-03-09T03:12:57.370Z,10.84
2019-03-09T03:15:32.465Z,10.71
2019-03-09T03:18:05.404Z,10.80
2019-03-09T03:20:37.183Z,10.73
2019-03-09T03:23:09.219Z,10.76
2019-03-09T03:25:41.356Z,10.65
2019-03-09T03:28:13.338Z,10.44
2019-03-09T03:30:49.231Z,10.40
2019-03-09T03:33:21.070Z,10.35
2019-03-09T03:35:52.870Z,10.39
2019-03-09T03:38:28.840Z,10.46
2019-03-09T03:41:00.643Z,10.34
2019-03-09T03:43:32.545Z,10.16
2019-03-09T03:46:04.302Z,10.15
2019-03-09T03:48:36.735Z,10.19
2019-03-09T03:51:09.662Z,10.06
2019-03-09T03:53:41.559Z,10.08
2019-03-09T03:56:13.481Z,10.14
2019-03-09T03:58:45.808Z,10.14
2019-03-09T04:01:19.517Z,10.07
2019-03-09T04:03:51.398Z,10.26
2019-03-09T04:06:23.960Z,10.49
2019-03-09T04:08:56.833Z,10.47
2019-03-09T04:11:28.807Z,10.44
2019-03-09T04:14:01.014Z,10.50
2019-03-09T04:16:32.973Z,10.60
2019-03-09T04:19:06.595Z,10.63
2019-03-09T04:21:39.775Z,10.63
2019-03-09T04:24:11.586Z,10.73
2019-03-09T04:26:48.006Z,10.67
2019-03-09T04:29:19.926Z,10.73
2019-03-09T04:31:51.709Z,10.65
2019-03-09T04:34:23.623Z,10.66
2019-03-09T04:37:01.595Z,10.74
2019-03-09T04:39:33.552Z,10.60
2019-03-09T04:42:05.970Z,10.60
2019-03-09T04:44:37.789Z,10.31
2019-03-09T04:47:09.754Z,10.25
2019-03-09T04:49:43.351Z,10.33
2019-03-09T04:52:17.334Z,10.29
2019-03-09T04:54:49.262Z,10.32
2019-03-09T04:57:23.539Z,10.40
2019-03-09T04:59:55.367Z,10.46
2019-03-09T05:02:27.164Z,10.49
2019-03-09T05:05:00.667Z,10.53
2019-03-09T05:07:34.864Z,10.57
2019-03-09T05:10:13.640Z,10.49
2019-03-09T05:12:46.026Z,10.62
2019-03-09T05:15:17.857Z,10.57
2019-03-09T05:17:49.674Z,10.67
2019-03-09T05:20:21.841Z,10.62
2019-03-09T05:22:53.884Z,10.64
2019-03-09T05:25:25.720Z,10.64
2019-03-09T05:27:57.561Z,10.62
2019-03-09T05:30:41.583Z,10.59
2019-03-09T05:33:13.481Z,10.75
2019-03-09T05:35:45.297Z,10.71
2019-03-09T05:38:19.402Z,10.62
2019-03-09T05:40:53.501Z,10.68
2019-03-09T05:43:26.984Z,10.62
2019-03-09T05:45:58.863Z,10.69
2019-03-09T05:48:30.772Z,10.72
2019-03-09T05:51:02.656Z,10.70
2019-03-09T05:53:34.544Z,10.73
2019-03-09T05:56:07.865Z,10.75
2019-03-09T05:58:39.891Z,10.89
2019-03-09T06:01:13.821Z,10.85
2019-03-09T06:03:45.701Z,10.90
2019-03-09T06:06:20.936Z,10.92
2019-03-09T06:08:52.906Z,10.85
2019-03-09T06:11:24.797Z,10.89
2019-03-09T06:13:56.609Z,11.00
2019-03-09T06:16:28.446Z,10.99
2019-03-09T06:19:00.231Z,11.06
2019-03-09T06:21:32.149Z,11.08
2019-03-09T06:24:04.052Z,11.06
2019-03-09T06:26:35.892Z,11.04
2019-03-09T06:29:07.685Z,10.93
2019-03-09T06:31:41.358Z,11.04
2019-03-09T06:34:13.205Z,10.93
2019-03-09T06:37:02.046Z,11.01
2019-03-09T06:39:42.024Z,10.92
2019-03-09T06:42:53.474Z,10.87
2019-03-09T06:45:25.833Z,10.89
2019-03-09T06:47:57.798Z,10.73
2019-03-09T06:50:29.677Z,10.80
2019-03-09T06:53:02.945Z,10.95
2019-03-09T06:55:34.996Z,10.90
2019-03-09T06:58:07.041Z,10.88
2019-03-09T07:00:40.961Z,10.97
2019-03-09T07:03:15.183Z,11.02
2019-03-09T07:05:47.036Z,11.04
2019-03-09T07:08:18.842Z,10.87
2019-03-09T07:10:51.794Z,10.78
2019-03-09T07:13:23.590Z,10.84
2019-03-09T07:15:59.565Z,10.96
2019-03-09T07:18:39.826Z,10.92
2019-03-09T07:21:13.198Z,11.00
2019-03-09T07:23:45.090Z,11.12
2019-03-09T07:26:17.224Z,11.22
2019-03-09T07:28:49.050Z,11.29
2019-03-09T07:31:20.998Z,11.38
2019-03-09T07:34:24.150Z,11.39
2019-03-09T07:36:57.625Z,11.45
2019-03-09T07:39:29.460Z,11.60
2019-03-09T07:42:02.269Z,11.63
2019-03-09T07:44:34.098Z,11.73
2019-03-09T07:47:05.887Z,11.73
2019-03-09T07:49:39.457Z,11.81
2019-03-09T07:52:39.395Z,11.77
2019-03-09T07:55:12.834Z,11.85
2019-03-09T07:57:45.044Z,11.83
2019-03-09T08:00:18.444Z,11.99
2019-03-09T08:02:51.587Z,12.18
2019-03-09T08:05:26.451Z,11.99
2019-03-09T08:07:58.401Z,12.14
2019-03-09T08:10:30.361Z,12.18
2019-03-09T08:13:02.521Z,12.23
2019-03-09T08:15:34.346Z,12.10
2019-03-09T08:18:06.203Z,12.03
2019-03-09T08:20:38.059Z,12.26
2019-03-09T08:23:09.918Z,12.29
2019-03-09T08:25:44.164Z,12.34
2019-03-09T08:28:17.073Z,12.36
2019-03-09T08:30:49.053Z,12.50
2019-03-09T08:33:20.915Z,12.65
2019-03-09T08:35:52.786Z,12.86
2019-03-09T08:38:25.107Z,13.09
2019-03-09T08:40:56.935Z,13.46
2019-03-09T08:43:29.057Z,13.42
2019-03-09T08:46:00.926Z,13.42
2019-03-09T08:48:32.860Z,13.81
2019-03-09T08:51:04.732Z,13.78
2019-03-09T08:53:36.639Z,14.05
2019-03-09T08:56:10.364Z,14.01
2019-03-09T08:58:43.697Z,14.14
2019-03-09T09:01:16.336Z,14.45
2019-03-09T09:03:48.164Z,14.59
2019-03-09T09:06:20.000Z,15.24
2019-03-09T09:08:52.200Z,15.14
2019-03-09T09:11:26.031Z,15.16
2019-03-09T09:13:57.826Z,15.43
2019-03-09T09:16:30.159Z,15.54
2019-03-09T09:19:01.982Z,16.72
2019-03-09T09:21:33.850Z,17.27
2019-03-09T09:24:06.044Z,17.78
2019-03-09T09:26:37.895Z,18.97
2019-03-09T09:29:09.849Z,19.70
2019-03-09T09:31:41.917Z,20.63
2019-03-09T09:34:16.452Z,23.22
2019-03-09T09:36:48.310Z,25.54
2019-03-09T09:39:22.393Z,27.12
2019-03-09T09:41:55.814Z,26.84
2019-03-09T09:44:27.756Z,27.59
2019-03-09T09:46:59.547Z,27.13
2019-03-09T09:49:33.153Z,26.09
2019-03-09T09:52:05.020Z,28.87
2019-03-09T09:54:37.242Z,30.02
2019-03-09T09:57:09.274Z,30.66
2019-03-09T09:59:41.534Z,28.96
2019-03-09T10:02:14.858Z,32.74
2019-03-09T10:04:48.383Z,33.84
2019-03-09T10:07:20.194Z,34.29
2019-03-09T10:09:52.103Z,33.35
2019-03-09T10:12:23.926Z,33.83
2019-03-09T10:14:55.707Z,33.58
2019-03-09T10:17:27.694Z,34.58
2019-03-09T10:19:59.487Z,31.16
2019-03-09T10:22:31.296Z,33.22
2019-03-09T10:25:03.110Z,33.18
2019-03-09T10:27:34.984Z,33.14
2019-03-09T10:30:07.251Z,34.89
2019-03-09T10:32:39.205Z,34.25
2019-03-09T10:35:11.091Z,33.67
2019-03-09T10:37:45.209Z,34.22
2019-03-09T10:40:17.465Z,34.03
2019-03-09T10:42:49.390Z,33.86
2019-03-09T10:45:24.075Z,34.89
2019-03-09T10:47:55.939Z,33.97
2019-03-09T10:50:27.837Z,34.94
2019-03-09T10:52:59.695Z,33.24
2019-03-09T10:55:31.487Z,34.67
2019-03-09T10:58:03.706Z,34.74
2019-03-09T11:00:36.494Z,34.91
2019-03-09T11:03:08.414Z,33.47
2019-03-09T11:05:41.963Z,35.53
2019-03-09T11:08:14.012Z,35.55
2019-03-09T11:10:47.893Z,35.44
2019-03-09T11:13:19.889Z,34.42
2019-03-09T11:15:52.021Z,35.77
2019-03-09T11:18:23.860Z,35.89
2019-03-09T11:20:57.017Z,34.93
2019-03-09T11:23:29.048Z,35.35
2019-03-09T11:26:02.754Z,31.40
2019-03-09T11:28:34.601Z,34.10
2019-03-09T11:31:07.374Z,34.02
2019-03-09T11:33:39.345Z,33.15
2019-03-09T11:36:11.211Z,32.86
2019-03-09T11:38:43.062Z,33.16
2019-03-09T11:41:19.372Z,34.02
2019-03-09T11:43:49.755Z,34.44
2019-03-09T11:46:21.593Z,34.64
2019-03-09T11:48:53.451Z,33.86
2019-03-09T11:51:25.228Z,35.19
2019-03-09T11:53:57.109Z,34.79
2019-03-09T11:56:29.169Z,34.33
2019-03-09T11:59:01.015Z,34.43
2019-03-09T12:01:32.856Z,31.85
2019-03-09T12:04:06.302Z,33.34
2019-03-09T12:06:38.138Z,34.45
2019-03-09T12:09:10.038Z,35.09
2019-03-09T12:11:41.986Z,35.26
2019-03-09T12:14:13.928Z,35.33
2019-03-09T12:16:45.829Z,33.24
2019-03-09T12:19:18.537Z,34.18
2019-03-09T12:21:51.431Z,35.04
2019-03-09T12:24:23.360Z,35.49
2019-03-09T12:26:55.304Z,35.93
2019-03-09T12:29:27.160Z,36.08
2019-03-09T12:31:58.945Z,34.71
2019-03-09T12:34:30.842Z,34.66
2019-03-09T12:37:02.657Z,34.55
2019-03-09T12:39:34.465Z,34.00
2019-03-09T12:42:06.239Z,34.80
2019-03-09T12:44:39.367Z,31.73
2019-03-09T12:47:11.167Z,31.12
2019-03-09T12:49:43.190Z,30.99
2019-03-09T12:52:16.262Z,28.65
2019-03-09T12:54:48.123Z,27.28
2019-03-09T12:57:20.116Z,26.10
2019-03-09T12:59:51.935Z,23.71
2019-03-09T13:02:24.785Z,23.72
2019-03-09T13:04:56.716Z,24.26
2019-03-09T13:07:28.507Z,23.92
2019-03-09T13:10:01.489Z,23.89
2019-03-09T13:12:33.413Z,23.97
2019-03-09T13:15:05.426Z,23.82
2019-03-09T13:17:37.281Z,24.00
2019-03-09T13:20:09.358Z,24.01
2019-03-09T13:22:41.164Z,22.66
2019-03-09T13:25:13.325Z,23.06
2019-03-09T13:27:45.211Z,23.64
2019-03-09T13:30:20.366Z,23.44
2019-03-09T13:32:52.221Z,23.42
2019-03-09T13:35:24.630Z,23.63
2019-03-09T13:37:57.186Z,23.89
2019-03-09T13:40:29.015Z,23.92
2019-03-09T13:43:00.988Z,24.29
2019-03-09T13:45:32.810Z,24.26
2019-03-09T13:48:04.749Z,23.96
2019-03-09T13:50:37.755Z,23.36
2019-03-09T13:53:12.865Z,23.40
2019-03-09T13:55:47.520Z,23.57
2019-03-09T13:58:21.086Z,23.79
2019-03-09T14:00:53.024Z,24.01
2019-03-09T14:03:24.845Z,23.41
2019-03-09T14:05:56.705Z,22.98
2019-03-09T14:08:30.248Z,23.26
2019-03-09T14:11:03.746Z,22.81
2019-03-09T14:13:35.534Z,22.76
2019-03-09T14:16:07.358Z,22.45
2019-03-09T14:18:39.135Z,22.59
2019-03-09T14:21:11.363Z,22.49
2019-03-09T14:23:43.517Z,22.32
2019-03-09T14:26:15.780Z,22.49
2019-03-09T14:28:47.699Z,22.62
2019-03-09T14:31:20.704Z,22.61
2019-03-09T14:33:52.669Z,23.16
2019-03-09T14:36:24.501Z,22.79
2019-03-09T14:38:56.372Z,21.97
2019-03-09T14:41:28.311Z,21.70
2019-03-09T14:44:00.303Z,21.49
2019-03-09T14:46:32.221Z,21.24
2019-03-09T14:49:04.364Z,21.48
2019-03-09T14:51:36.280Z,21.34
2019-03-09T14:54:08.158Z,21.54
2019-03-09T14:56:41.135Z,21.86
2019-03-09T14:59:13.052Z,21.83
2019-03-09T15:01:44.901Z,22.21
2019-03-09T15:04:18.656Z,21.79
2019-03-09T15:06:53.714Z,21.32
2019-03-09T15:09:27.257Z,21.03
2019-03-09T15:11:59.243Z,21.17
2019-03-09T15:14:31.290Z,21.12
2019-03-09T15:17:03.078Z,21.24
2019-03-09T15:19:34.972Z,21.21
2019-03-09T15:22:06.864Z,21.13
2019-03-09T15:24:39.237Z,21.20
2019-03-09T15:27:11.032Z,20.85
2019-03-09T15:29:42.934Z,20.58
2019-03-09T15:32:14.798Z,20.34
2019-03-09T15:34:46.618Z,20.61
2019-03-09T15:37:18.480Z,20.85
2019-03-09T15:39:50.280Z,20.98
2019-03-09T15:42:24.628Z,21.06
2019-03-09T15:44:56.460Z,21.12
2019-03-09T15:47:28.632Z,21.26
2019-03-09T15:50:00.468Z,21.04
2019-03-09T15:52:33.677Z,21.12
2019-03-09T15:55:05.929Z,20.84
2019-03-09T15:57:38.045Z,21.15
2019-03-09T16:00:14.964Z,21.32
2019-03-09T16:02:49.238Z,21.32
2019-03-09T16:05:24.362Z,21.49
2019-03-09T16:07:56.248Z,21.38
2019-03-09T16:10:28.045Z,21.36
2019-03-09T16:13:00.602Z,21.22
2019-03-09T16:15:32.540Z,21.30
2019-03-09T16:18:06.561Z,21.12
2019-03-09T16:20:38.448Z,21.03
2019-03-09T16:23:10.319Z,21.02
2019-03-09T16:25:43.815Z,20.89
2019-03-09T16:28:16.101Z,20.75
2019-03-09T16:30:47.950Z,20.36
2019-03-09T16:33:19.780Z,20.50
2019-03-09T16:35:51.722Z,20.41
2019-03-09T16:38:25.179Z,20.07
2019-03-09T16:40:57.185Z,19.75
2019-03-09T16:43:29.252Z,19.66
2019-03-09T16:46:01.080Z,19.78
2019-03-09T16:48:33.207Z,19.80
2019-03-09T16:51:05.068Z,19.84
2019-03-09T16:53:37.854Z,19.77
2019-03-09T16:56:12.793Z,19.88
2019-03-09T16:58:46.609Z,19.82
2019-03-09T17:01:18.570Z,19.68
2019-03-09T17:03:50.338Z,19.96
2019-03-09T17:06:22.144Z,20.03
2019-03-09T17:08:56.042Z,20.22
2019-03-09T17:11:27.956Z,19.79
2019-03-09T17:13:59.811Z,19.75
2019-03-09T17:16:31.742Z,19.76
2019-03-09T17:19:03.571Z,19.68
2019-03-09T17:21:35.408Z,19.49
2019-03-09T17:24:07.209Z,19.46
2019-03-09T17:26:40.731Z,19.08
2019-03-09T17:29:12.594Z,18.98
2019-03-09T17:31:44.629Z,18.95
2019-03-09T17:34:18.294Z,18.82
2019-03-09T17:36:51.784Z,18.56
2019-03-09T17:39:23.674Z,18.35
2019-03-09T17:41:55.502Z,18.13
2019-03-09T17:44:28.428Z,17.95
2019-03-09T17:47:00.298Z,17.81
2019-03-09T17:49:32.318Z,17.81
2019-03-09T17:52:05.797Z,17.69
2019-03-09T17:54:37.633Z,17.69
2019-03-09T17:57:09.633Z,17.59
2019-03-09T17:59:41.564Z,17.63
2019-03-09T18:02:13.451Z,17.35
2019-03-09T18:04:45.744Z,17.18
2019-03-09T18:07:19.743Z,17.10
2019-03-09T18:09:51.549Z,17.03
2019-03-09T18:12:23.391Z,17.00
2019-03-09T18:14:58.120Z,16.89
2019-03-09T18:17:30.011Z,16.87
2019-03-09T18:20:01.979Z,16.81
2019-03-09T18:22:33.909Z,16.89
2019-03-09T18:25:06.049Z,16.61
2019-03-09T18:27:38.026Z,16.58
2019-03-09T18:30:10.199Z,16.48
2019-03-09T18:32:43.101Z,16.45
2019-03-09T18:35:15.027Z,16.26
2019-03-09T18:37:48.586Z,16.18
2019-03-09T18:40:22.115Z,16.12
2019-03-09T18:42:55.667Z,16.07
2019-03-09T18:45:27.910Z,16.04
2019-03-09T18:48:03.339Z,15.93
2019-03-09T18:50:35.403Z,15.90
2019-03-09T18:53:08.129Z,15.80
2019-03-09T18:55:42.500Z,15.96
2019-03-09T18:58:14.289Z,15.75
2019-03-09T19:00:46.498Z,15.65
2019-03-09T19:03:18.316Z,15.61
2019-03-09T19:05:50.705Z,15.58
2019-03-09T19:08:22.552Z,15.50
2019-03-09T19:10:56.289Z,15.53
2019-03-09T19:13:29.986Z,15.49
2019-03-09T19:16:01.985Z,15.38
2019-03-09T19:18:34.247Z,15.28
2019-03-09T19:21:06.099Z,15.24
2019-03-09T19:23:38.275Z,15.18
2019-03-09T19:26:11.775Z,15.18
2019-03-09T19:28:43.562Z,15.08
2019-03-09T19:31:15.903Z,15.18
2019-03-09T19:33:47.814Z,15.18
2019-03-09T19:36:19.785Z,15.15
2019-03-09T19:38:51.942Z,15.15
2019-03-09T19:41:24.093Z,15.06
2019-03-09T19:43:57.595Z,14.91
2019-03-09T19:46:31.695Z,14.84
2019-03-09T19:49:03.575Z,14.86
2019-03-09T19:51:35.392Z,14.65
2019-03-09T19:54:07.521Z,14.56
2019-03-09T19:56:39.488Z,14.51
2019-03-09T19:59:14.098Z,14.38
2019-03-09T20:01:46.007Z,14.37
2019-03-09T20:04:18.320Z,14.34
2019-03-09T20:06:50.177Z,14.35
2019-03-09T20:09:22.249Z,14.45
2019-03-09T20:11:54.185Z,14.29
2019-03-09T20:14:27.779Z,14.26
2019-03-09T20:16:59.614Z,14.24
2019-03-09T20:19:31.457Z,14.23
2019-03-09T20:22:03.332Z,14.25
2019-03-09T20:24:35.270Z,14.20
2019-03-09T20:27:07.317Z,14.18
2019-03-09T20:29:39.284Z,14.18
2019-03-09T20:32:11.208Z,14.12
2019-03-09T20:34:46.539Z,13.95
2019-03-09T20:37:20.678Z,13.92
2019-03-09T20:39:52.517Z,13.76
2019-03-09T20:42:24.548Z,13.76
2019-03-09T20:44:58.268Z,13.64
2019-03-09T20:47:30.123Z,13.62
2019-03-09T20:50:02.385Z,13.61
2019-03-09T20:52:35.373Z,13.54
2019-03-09T20:55:07.372Z,13.54
2019-03-09T20:57:39.366Z,13.51
2019-03-09T21:00:16.133Z,13.43
2019-03-09T21:02:49.351Z,13.47
2019-03-09T21:05:26.249Z,13.31
2019-03-09T21:07:58.158Z,13.34
2019-03-09T21:10:30.291Z,13.12
2019-03-09T21:13:09.170Z,13.11
2019-03-09T21:15:41.163Z,13.00
2019-03-09T21:18:13.128Z,13.00
2019-03-09T21:20:44.976Z,13.01
2019-03-09T21:23:16.949Z,13.01
2019-03-09T21:25:48.840Z,12.98
2019-03-09T21:28:21.831Z,12.98
2019-03-09T21:30:54.940Z,12.92
2019-03-09T21:33:26.751Z,12.89
2019-03-09T21:36:01.336Z,12.90
2019-03-09T21:38:33.300Z,12.77
2019-03-09T21:41:06.788Z,12.74
2019-03-09T21:43:38.824Z,12.74
2019-03-09T21:46:10.682Z,12.69
2019-03-09T21:48:42.646Z,12.73
2019-03-09T21:51:14.939Z,12.68
2019-03-09T21:53:46.821Z,12.69
2019-03-09T21:56:20.463Z,12.63
2019-03-09T21:58:53.696Z,12.56
2019-03-09T22:01:25.615Z,12.69
2019-03-09T22:03:58.288Z,12.57
2019-03-09T22:06:31.986Z,12.41
2019-03-09T22:09:06.474Z,12.32
2019-03-09T22:11:40.358Z,12.33
2019-03-09T22:14:12.638Z,12.33
2019-03-09T22:16:44.547Z,12.13
2019-03-09T22:19:18.026Z,12.29
2019-03-09T22:21:50.172Z,12.26
2019-03-09T22:24:22.194Z,12.30
2019-03-09T22:26:55.193Z,12.19
2019-03-09T22:29:27.051Z,12.17
2019-03-09T22:31:58.877Z,12.32
2019-03-09T22:34:34.804Z,12.29
2019-03-09T22:37:06.694Z,12.37
2019-03-09T22:39:38.664Z,12.30
2019-03-09T22:42:10.443Z,11.98
2019-03-09T22:44:43.964Z,11.83
2019-03-09T22:47:17.422Z,11.76
2019-03-09T22:49:52.204Z,11.62
2019-03-09T22:52:26.723Z,11.54
2019-03-09T22:54:58.766Z,11.62
2019-03-09T22:57:30.615Z,11.68
2019-03-09T23:00:02.496Z,11.65
2019-03-09T23:02:36.068Z,11.75
2019-03-09T23:05:08.795Z,11.93
2019-03-09T23:07:41.156Z,11.77
2019-03-09T23:10:15.969Z,11.69
2019-03-09T23:12:47.775Z,11.85
2019-03-09T23:15:21.259Z,11.83
2019-03-09T23:17:53.097Z,11.77
2019-03-09T23:20:25.660Z,11.74
2019-03-09T23:22:59.079Z,11.58
2019-03-09T23:25:30.978Z,11.67
2019-03-09T23:28:02.816Z,11.68
2019-03-09T23:30:34.616Z,11.51
2019-03-09T23:33:06.479Z,11.54
2019-03-09T23:35:38.339Z,11.58
2019-03-09T23:38:10.288Z,11.29
2019-03-09T23:40:42.180Z,11.58
2019-03-09T23:43:14.069Z,11.29
2019-03-09T23:45:45.904Z,11.36
2019-03-09T23:48:18.919Z,11.40
2019-03-09T23:50:50.821Z,11.51
2019-03-09T23:53:22.711Z,11.56
2019-03-09T23:55:54.538Z,11.49
2019-03-09T23:58:27.375Z,11.37
